Página principal
METAR-TAF:

METAR-TAF

Aeroportos :

Wallis, França

latitude: 13-14S, longitude: 176-10W, altura: 23 m

METAR: em falta

Hora: 14:24 (02:24 UTC)

Previsão

O boletim foi feito há 3 horas e 24 minutos, às 23:00 UTC
Previsão válida de 19 às 00 UTC a 19 às 24 UTC
Vento 10 kt de este
Visibilidade 10 km ou mais
Poucas nuvensa uma altura de 1500 ft
Nuvens dispersasa uma altura de 2500 ft
Nuvens fragmentadasa uma altura de 4000 ft
Temporariamente
de 19 às 00 UTC a 19 às 12 UTC
Visibilidade: 4500 m
Nuvens fragmentadasa uma altura de 1400 ft
Poucas nuvensa uma altura de 1800 ft, Cumulus congestus.
aguaceiros de chuva
Temporariamente
de 19 às 12 UTC a 19 às 24 UTC
Visibilidade: 3000 m
Nuvens fragmentadasa uma altura de 1200 ft
Nuvens dispersasa uma altura de 1800 ft, Cumulonimbus.
aguaceiros de chuva

TAF: NLWW 182300Z 1900/1924 10010KT 9999 FEW015 SCT025 BKN040 TEMPO 1900/1912 4500 SHRA BKN014 FEW018TCU TEMPO 1912/1924 3000 SHRA BKN012 SCT018CB

Observações e previsões do tempo de mais de 4000 aeroportos (mensagens METAR e TAF).

As estações disponíveis são os pontos amarelos e vermelhos sobre o mapa.

Mova o rato sobre o mapa para ver o nome da estação.

Depois clique no ponto para visualizar as observações e previsões meteorológicas.

Para alterar o mapa : clique nos botões verdes com uma cruz preta para aumentar o zoom; no botão verde com uma pitada de zoom; ou nas setas verdes para mapas adjacentes.


METAR-TAF: